In Rescue
 
Open Full Screen Window  High Contrast Mode
Wind Gusting 15 knots
11
October 25, 2021 3:59 PM CDT
Weather Information
Wind Direction
  120 °
Wind Speed
  11 kt (13 mph)
Wind Gust
  15 kt (17 mph)
Altimeter
30.08 in
Visibility
10 SM
Temperature
12° C
54° F
Dewpoint
02° C
36° F
Humidity
51%
1hr Rain Fall
00.00 in.
24hr Rain Fall
00.00 in.
Sky Condition
Clear
VFR

METAR KCNB 252059Z AUTO 12011G15KT 10SM CLR 12/02 A3008 RMK AO2 T01150018

FAA Disclaimer: The data displayed is for advisory purposes only and is not to be used for flight planning or operations.